createdAt,value
2019-04-26T00:01:33.108Z,33.83
2019-04-26T00:04:05.225Z,33.92
2019-04-26T00:06:36.877Z,34.35
2019-04-26T00:09:19.115Z,34.18
2019-04-26T00:11:52.368Z,34.30
2019-04-26T00:14:32.021Z,35.33
2019-04-26T00:17:22.359Z,32.98
2019-04-26T00:19:54.542Z,33.42
2019-04-26T00:22:26.683Z,33.13
2019-04-26T00:24:58.440Z,33.65
2019-04-26T00:27:30.308Z,33.63
2019-04-26T00:30:02.058Z,33.13
2019-04-26T00:32:34.933Z,34.88
2019-04-26T00:35:07.767Z,34.18
2019-04-26T00:37:39.703Z,35.50
2019-04-26T00:40:12.891Z,34.20
2019-04-26T00:42:46.390Z,34.58
2019-04-26T00:45:21.073Z,34.03
2019-04-26T00:47:52.995Z,33.98
2019-04-26T00:50:24.771Z,35.03
2019-04-26T00:52:56.645Z,35.85
2019-04-26T00:55:30.584Z,33.80
2019-04-26T00:58:03.757Z,35.38
2019-04-26T01:00:35.624Z,35.63
2019-04-26T01:03:07.461Z,35.60
2019-04-26T01:05:40.794Z,35.03
2019-04-26T01:08:12.833Z,35.70
2019-04-26T01:10:44.526Z,35.03
2019-04-26T01:13:16.449Z,35.20
2019-04-26T01:15:49.542Z,33.23
2019-04-26T01:18:22.283Z,34.75
2019-04-26T01:20:56.660Z,34.38
2019-04-26T01:23:30.326Z,33.95
2019-04-26T01:26:11.044Z,34.63
2019-04-26T01:28:48.511Z,34.38
2019-04-26T01:31:20.328Z,34.40
2019-04-26T01:33:52.705Z,33.42
2019-04-26T01:36:26.526Z,33.48
2019-04-26T01:39:01.728Z,33.85
2019-04-26T01:41:44.856Z,35.20
2019-04-26T01:44:24.728Z,34.35
2019-04-26T01:46:57.574Z,34.30
2019-04-26T01:49:29.415Z,34.10
2019-04-26T01:52:13.340Z,34.95
2019-04-26T01:54:46.739Z,34.20
2019-04-26T01:57:19.357Z,34.88
2019-04-26T01:59:55.510Z,35.95
2019-04-26T02:02:29.787Z,34.15
2019-04-26T02:05:06.620Z,34.43
2019-04-26T02:07:38.764Z,35.38
2019-04-26T02:10:16.091Z,34.70
2019-04-26T02:12:49.368Z,34.65
2019-04-26T02:15:24.486Z,34.23
2019-04-26T02:17:59.795Z,35.23
2019-04-26T02:21:09.583Z,34.30
2019-04-26T02:23:52.259Z,34.13
2019-04-26T02:26:40.746Z,34.40
2019-04-26T02:29:18.446Z,32.90
2019-04-26T02:31:56.008Z,34.98
2019-04-26T02:34:31.862Z,35.17
2019-04-26T02:37:08.033Z,34.05
2019-04-26T02:39:43.244Z,34.38
2019-04-26T02:42:28.693Z,34.88
2019-04-26T02:45:21.565Z,35.63
2019-04-26T02:47:56.892Z,35.48
2019-04-26T02:50:39.289Z,34.75
2019-04-26T02:53:45.655Z,35.08
2019-04-26T02:56:31.609Z,36.05
2019-04-26T02:59:11.633Z,34.83
2019-04-26T03:02:05.572Z,34.30
2019-04-26T03:04:47.103Z,34.08
2019-04-26T03:07:35.873Z,34.65
2019-04-26T03:10:10.426Z,35.43
2019-04-26T03:12:46.169Z,35.78
2019-04-26T03:15:22.463Z,34.53
2019-04-26T03:18:01.623Z,35.88
2019-04-26T03:20:40.099Z,36.48
2019-04-26T03:23:19.232Z,35.65
2019-04-26T03:26:02.124Z,36.33
2019-04-26T03:28:37.619Z,36.00
2019-04-26T03:31:16.742Z,35.63
2019-04-26T03:34:10.141Z,35.30
2019-04-26T03:37:20.253Z,35.73
2019-04-26T03:39:57.275Z,34.60
2019-04-26T03:42:44.675Z,35.13
2019-04-26T03:45:25.109Z,35.38
2019-04-26T03:48:25.238Z,35.28
2019-04-26T03:51:15.174Z,36.40
2019-04-26T03:53:55.806Z,35.43
2019-04-26T03:56:42.367Z,35.43
2019-04-26T03:59:26.113Z,35.92
2019-04-26T04:02:08.443Z,34.90
2019-04-26T04:04:48.351Z,34.48
2019-04-26T04:07:37.195Z,34.78
2019-04-26T04:10:07.367Z,34.08
2019-04-26T04:12:51.002Z,34.85
2019-04-26T04:15:50.481Z,33.20
2019-04-26T04:18:30.900Z,35.05
2019-04-26T04:21:37.478Z,35.00
2019-04-26T04:24:14.957Z,34.18
2019-04-26T04:26:54.782Z,33.58
2019-04-26T04:29:43.047Z,34.60
2019-04-26T04:32:43.786Z,34.92
2019-04-26T04:35:20.509Z,34.60
2019-04-26T04:38:21.633Z,35.30
2019-04-26T04:41:13.876Z,35.90
2019-04-26T04:44:00.183Z,33.63
2019-04-26T04:46:47.458Z,34.45
2019-04-26T04:49:52.796Z,38.05
2019-04-26T04:52:35.338Z,38.30
2019-04-26T04:55:20.330Z,39.18
2019-04-26T04:58:17.683Z,39.30
2019-04-26T05:01:25.829Z,37.20
2019-04-26T05:04:14.194Z,35.68
2019-04-26T05:07:19.146Z,35.05
2019-04-26T05:10:02.122Z,34.78
2019-04-26T05:12:58.000Z,35.73
2019-04-26T05:15:52.729Z,35.10
2019-04-26T05:18:33.474Z,34.83
2019-04-26T05:21:08.198Z,34.15
2019-04-26T05:23:48.995Z,37.45
2019-04-26T05:26:37.096Z,34.78
2019-04-26T05:29:25.723Z,34.35
2019-04-26T05:32:03.274Z,32.85
2019-04-26T05:34:41.890Z,33.88
2019-04-26T05:37:53.061Z,34.38
2019-04-26T05:40:45.830Z,34.03
2019-04-26T05:43:41.546Z,33.63
2019-04-26T05:46:37.267Z,34.05
2019-04-26T05:49:55.864Z,33.05
2019-04-26T05:52:32.094Z,32.10
2019-04-26T05:55:30.644Z,32.03
2019-04-26T05:58:26.127Z,31.00
2019-04-26T06:01:20.331Z,30.75
2019-04-26T06:04:21.631Z,30.23
2019-04-26T06:07:29.648Z,30.97
2019-04-26T06:10:33.029Z,30.20
2019-04-26T06:13:11.806Z,29.82
2019-04-26T06:16:00.275Z,32.03
2019-04-26T06:18:49.340Z,31.87
2019-04-26T06:21:43.475Z,32.83
2019-04-26T06:24:27.927Z,30.68
2019-04-26T06:27:27.985Z,28.47
2019-04-26T06:30:19.818Z,21.95
2019-04-26T06:33:15.168Z,21.75
2019-04-26T06:35:50.300Z,22.20
2019-04-26T06:41:23.000Z,21.00
2019-04-26T06:44:12.661Z,19.80
2019-04-26T06:47:12.738Z,20.10
2019-04-26T06:49:52.848Z,21.23
2019-04-26T06:52:27.593Z,20.27
2019-04-26T06:55:09.674Z,19.25
2019-04-26T06:58:16.373Z,18.70
2019-04-26T07:01:21.053Z,19.80
2019-04-26T07:04:04.336Z,19.85
2019-04-26T07:07:00.924Z,20.23
2019-04-26T07:10:04.086Z,19.35
2019-04-26T07:13:14.771Z,18.30
2019-04-26T07:15:53.710Z,19.30
2019-04-26T07:18:29.706Z,19.42
2019-04-26T07:24:09.833Z,20.45
2019-04-26T07:27:09.020Z,19.57
2019-04-26T07:30:13.414Z,15.53
2019-04-26T07:33:06.269Z,18.80
2019-04-26T07:35:49.696Z,18.75
2019-04-26T07:38:54.611Z,17.73
2019-04-26T07:41:57.509Z,18.77
2019-04-26T07:44:53.288Z,19.32
2019-04-26T07:50:17.976Z,18.67
2019-04-26T07:53:19.968Z,18.75
2019-04-26T07:56:02.325Z,19.17
2019-04-26T07:59:08.791Z,19.23
2019-04-26T08:02:06.663Z,19.20
2019-04-26T08:04:44.292Z,19.25
2019-04-26T08:07:25.423Z,18.70
2019-04-26T08:10:09.917Z,20.25
2019-04-26T08:12:44.693Z,19.25
2019-04-26T08:15:36.073Z,19.05
2019-04-26T08:18:15.246Z,20.15
2019-04-26T08:20:52.189Z,20.20
2019-04-26T08:23:41.126Z,19.52
2019-04-26T08:26:09.120Z,19.25
2019-04-26T08:28:44.817Z,19.90
2019-04-26T08:31:22.698Z,19.95
2019-04-26T08:33:54.946Z,20.30
2019-04-26T08:36:31.069Z,19.95
2019-04-26T08:39:10.929Z,19.57
2019-04-26T08:41:45.017Z,20.82
2019-04-26T08:44:22.854Z,20.72
2019-04-26T08:46:58.377Z,20.72
2019-04-26T08:49:40.198Z,21.45
2019-04-26T08:52:14.827Z,21.20
2019-04-26T08:54:52.047Z,20.45
2019-04-26T08:57:26.740Z,20.92
2019-04-26T09:00:01.612Z,21.12
2019-04-26T09:02:39.601Z,21.95
2019-04-26T09:05:30.268Z,20.52
2019-04-26T09:08:04.349Z,20.65
2019-04-26T09:10:42.957Z,21.62
2019-04-26T09:13:15.994Z,21.82
2019-04-26T09:16:06.940Z,21.25
2019-04-26T09:18:43.881Z,22.10
2019-04-26T09:21:19.277Z,22.00
2019-04-26T09:23:55.833Z,21.62
2019-04-26T09:26:30.613Z,22.60
2019-04-26T09:29:05.438Z,22.93
2019-04-26T09:31:41.038Z,22.27
2019-04-26T09:34:32.657Z,22.58
2019-04-26T09:37:06.352Z,22.90
2019-04-26T09:39:41.690Z,23.57
2019-04-26T09:42:31.153Z,23.30
2019-04-26T09:45:23.882Z,23.00
2019-04-26T09:48:01.830Z,23.05
2019-04-26T09:50:38.219Z,23.92
2019-04-26T09:53:11.380Z,23.38
2019-04-26T09:55:45.992Z,25.97
2019-04-26T09:58:18.159Z,23.65
2019-04-26T10:00:50.361Z,24.75
2019-04-26T10:03:22.197Z,25.23
2019-04-26T10:05:55.828Z,25.00
2019-04-26T10:08:29.443Z,26.02
2019-04-26T10:11:09.627Z,25.10
2019-04-26T10:13:42.819Z,26.45
2019-04-26T10:16:17.198Z,26.65
2019-04-26T10:18:50.694Z,27.05
2019-04-26T10:21:22.345Z,27.00
2019-04-26T10:23:54.097Z,28.35
2019-04-26T10:26:28.228Z,28.02
2019-04-26T10:29:01.432Z,27.17
2019-04-26T10:31:34.705Z,26.27
2019-04-26T10:34:07.824Z,27.82
2019-04-26T10:36:42.168Z,27.85
2019-04-26T10:39:17.454Z,27.10
2019-04-26T10:41:50.796Z,26.37
2019-04-26T10:44:23.732Z,27.02
2019-04-26T10:46:59.861Z,25.15
2019-04-26T10:49:44.615Z,26.17
2019-04-26T10:52:25.989Z,24.85
2019-04-26T10:55:17.857Z,25.77
2019-04-26T10:57:52.445Z,26.30
2019-04-26T11:00:42.688Z,26.25
2019-04-26T11:03:19.124Z,25.40
2019-04-26T11:05:53.814Z,25.23
2019-04-26T11:08:25.500Z,24.00
2019-04-26T11:10:59.817Z,24.87
2019-04-26T11:13:36.419Z,24.67
2019-04-26T11:16:08.967Z,24.10
2019-04-26T11:18:43.021Z,23.45
2019-04-26T11:21:16.337Z,23.45
2019-04-26T11:23:50.045Z,23.42
2019-04-26T11:26:21.889Z,24.10
2019-04-26T11:28:57.247Z,22.82
2019-04-26T11:31:29.901Z,21.73
2019-04-26T11:34:05.575Z,23.65
2019-04-26T11:36:37.697Z,21.33
2019-04-26T11:39:11.720Z,22.35
2019-04-26T11:41:47.468Z,21.95
2019-04-26T11:44:19.272Z,21.17
2019-04-26T11:46:51.096Z,21.75
2019-04-26T11:49:25.871Z,22.37
2019-04-26T11:52:05.220Z,21.27
2019-04-26T11:54:36.901Z,21.02
2019-04-26T11:57:12.010Z,20.30
2019-04-26T11:59:44.483Z,20.10
2019-04-26T12:02:17.251Z,20.00
2019-04-26T12:04:55.094Z,20.85
2019-04-26T12:07:29.066Z,20.82
2019-04-26T12:10:05.956Z,20.60
2019-04-26T12:12:37.433Z,20.62
2019-04-26T12:15:10.255Z,20.32
2019-04-26T12:17:43.250Z,20.00
2019-04-26T12:20:16.567Z,19.65
2019-04-26T12:22:48.314Z,19.62
2019-04-26T12:25:20.112Z,20.05
2019-04-26T12:27:53.618Z,19.98
2019-04-26T12:30:26.891Z,19.30
2019-04-26T12:33:00.406Z,19.12
2019-04-26T12:35:32.281Z,19.67
2019-04-26T12:38:04.097Z,20.00
2019-04-26T12:40:35.761Z,19.77
2019-04-26T12:43:09.173Z,19.07
2019-04-26T12:45:51.535Z,19.57
2019-04-26T12:48:22.441Z,18.98
2019-04-26T12:50:56.619Z,20.08
2019-04-26T12:53:31.257Z,19.32
2019-04-26T12:56:04.173Z,19.70
2019-04-26T12:58:35.843Z,19.35
2019-04-26T13:01:12.301Z,19.45
2019-04-26T13:03:44.128Z,19.67
2019-04-26T13:06:16.158Z,19.80
2019-04-26T13:08:51.513Z,19.17
2019-04-26T13:11:26.798Z,19.80
2019-04-26T13:14:16.241Z,19.57
2019-04-26T13:16:52.407Z,19.37
2019-04-26T13:19:24.993Z,19.80
2019-04-26T13:21:58.890Z,18.90
2019-04-26T13:24:30.530Z,19.50
2019-04-26T13:27:05.868Z,18.73
2019-04-26T13:29:38.243Z,18.60
2019-04-26T13:32:11.414Z,18.40
2019-04-26T13:34:44.266Z,19.20
2019-04-26T13:37:15.986Z,18.25
2019-04-26T13:39:47.565Z,19.12
2019-04-26T13:42:19.291Z,19.10
2019-04-26T13:45:03.345Z,19.42
2019-04-26T13:47:55.234Z,18.23
2019-04-26T13:50:30.585Z,19.42
2019-04-26T13:53:02.406Z,17.87
2019-04-26T13:55:34.329Z,18.35
2019-04-26T13:58:07.128Z,18.30
2019-04-26T14:00:43.525Z,17.82
2019-04-26T14:03:15.850Z,16.75
2019-04-26T14:05:49.689Z,17.32
2019-04-26T14:08:21.598Z,16.82
2019-04-26T14:10:55.106Z,17.37
2019-04-26T14:13:30.977Z,16.70
2019-04-26T14:16:11.131Z,16.30
2019-04-26T14:18:46.567Z,16.82
2019-04-26T14:21:18.303Z,16.45
2019-04-26T14:23:55.783Z,16.95
2019-04-26T14:26:39.870Z,16.80
2019-04-26T14:29:12.006Z,17.02
2019-04-26T14:31:47.300Z,16.77
2019-04-26T14:34:19.627Z,15.70
2019-04-26T14:37:05.574Z,15.28
2019-04-26T14:39:38.274Z,15.35
2019-04-26T14:42:02.532Z,16.30
2019-04-26T14:44:35.429Z,16.00
2019-04-26T14:47:13.790Z,15.90
2019-04-26T14:49:43.098Z,15.13
2019-04-26T14:52:15.037Z,16.42
2019-04-26T14:54:48.771Z,16.10
2019-04-26T14:57:28.435Z,16.87
2019-04-26T14:59:56.975Z,16.55
2019-04-26T15:02:32.919Z,17.62
2019-04-26T15:05:22.936Z,16.52
2019-04-26T15:07:54.602Z,16.85
2019-04-26T15:10:43.883Z,16.95
2019-04-26T15:13:17.953Z,16.45
2019-04-26T15:15:48.577Z,16.60
2019-04-26T15:18:22.559Z,15.63
2019-04-26T15:20:57.041Z,15.18
2019-04-26T15:23:28.114Z,16.00
2019-04-26T15:26:04.775Z,15.48
2019-04-26T15:28:36.318Z,15.58
2019-04-26T15:31:09.569Z,15.93
2019-04-26T15:33:48.642Z,16.35
2019-04-26T15:36:23.113Z,16.02
2019-04-26T15:38:57.016Z,15.95
2019-04-26T15:41:30.799Z,16.20
2019-04-26T15:44:11.430Z,16.12
2019-04-26T15:46:59.715Z,15.70
2019-04-26T15:49:39.545Z,15.78
2019-04-26T15:52:12.115Z,15.50
2019-04-26T15:54:43.982Z,16.30
2019-04-26T15:57:16.168Z,16.17
2019-04-26T15:59:49.482Z,19.45
2019-04-26T16:02:26.195Z,19.23
2019-04-26T16:05:02.224Z,16.30
2019-04-26T16:07:36.648Z,15.93
2019-04-26T16:10:09.518Z,15.68
2019-04-26T16:12:48.003Z,16.00
2019-04-26T16:15:19.723Z,17.60
2019-04-26T16:17:52.538Z,20.00
2019-04-26T16:20:31.712Z,20.57
2019-04-26T16:23:07.048Z,18.02
2019-04-26T16:25:38.337Z,16.57
2019-04-26T16:28:30.851Z,16.55
2019-04-26T16:31:22.618Z,15.38
2019-04-26T16:34:10.824Z,16.42
2019-04-26T16:36:45.273Z,16.75
2019-04-26T16:39:16.417Z,15.90
2019-04-26T16:41:51.913Z,16.50
2019-04-26T16:44:29.897Z,16.57
2019-04-26T16:47:03.674Z,15.80
2019-04-26T16:49:41.301Z,15.55
2019-04-26T16:52:09.928Z,16.17
2019-04-26T16:54:42.346Z,15.88
2019-04-26T16:57:15.586Z,15.85
2019-04-26T16:59:56.967Z,16.10
2019-04-26T17:02:26.394Z,16.95
2019-04-26T17:05:03.633Z,17.02
2019-04-26T17:07:39.336Z,16.95
2019-04-26T17:10:12.172Z,15.13
2019-04-26T17:12:46.271Z,17.05
2019-04-26T17:15:21.134Z,18.12
2019-04-26T17:17:53.814Z,17.17
2019-04-26T17:20:28.256Z,16.02
2019-04-26T17:23:12.467Z,15.53
2019-04-26T17:26:04.103Z,16.52
2019-04-26T17:28:39.781Z,15.68
2019-04-26T17:31:13.326Z,15.88
2019-04-26T17:33:50.659Z,15.88
2019-04-26T17:36:24.761Z,15.55
2019-04-26T17:38:57.834Z,16.57
2019-04-26T17:41:31.020Z,17.52
2019-04-26T17:44:10.698Z,15.95
2019-04-26T17:46:40.067Z,16.73
2019-04-26T17:49:12.139Z,16.40
2019-04-26T17:51:45.157Z,16.23
2019-04-26T17:54:40.944Z,16.15
2019-04-26T17:56:53.552Z,14.87
2019-04-26T17:59:33.723Z,14.85
2019-04-26T18:02:01.394Z,15.20
2019-04-26T18:04:37.425Z,14.18
2019-04-26T18:07:37.690Z,15.23
2019-04-26T18:09:50.675Z,16.93
2019-04-26T18:12:22.738Z,20.68
2019-04-26T18:14:54.663Z,21.10
2019-04-26T18:17:28.441Z,20.75
2019-04-26T18:20:10.079Z,20.95
2019-04-26T18:22:54.226Z,19.27
2019-04-26T18:25:27.810Z,18.65
2019-04-26T18:27:59.455Z,17.90
2019-04-26T18:30:33.296Z,16.48
2019-04-26T18:33:08.239Z,15.32
2019-04-26T18:35:43.497Z,15.68
2019-04-26T18:41:00.116Z,15.38
2019-04-26T18:43:24.893Z,15.63
2019-04-26T18:46:03.404Z,14.83
2019-04-26T18:48:40.746Z,14.80
2019-04-26T18:51:12.208Z,15.18
2019-04-26T18:53:53.118Z,15.03
2019-04-26T18:56:25.084Z,14.78
2019-04-26T18:59:00.309Z,16.02
2019-04-26T19:01:38.009Z,15.28
2019-04-26T19:04:12.542Z,16.32
2019-04-26T19:06:42.314Z,15.90
2019-04-26T19:09:17.682Z,16.65
2019-04-26T19:11:53.577Z,15.95
2019-04-26T19:14:48.560Z,16.12
2019-04-26T19:17:19.959Z,16.23
2019-04-26T19:20:11.457Z,16.07
2019-04-26T19:22:46.528Z,17.10
2019-04-26T19:25:23.111Z,16.42
2019-04-26T19:27:54.063Z,16.55
2019-04-26T19:30:26.471Z,17.07
2019-04-26T19:33:02.069Z,16.40
2019-04-26T19:35:39.427Z,16.70
2019-04-26T19:38:11.950Z,17.30
2019-04-26T19:40:48.062Z,17.82
2019-04-26T19:43:30.302Z,18.50
2019-04-26T19:46:02.936Z,17.60
2019-04-26T19:48:36.145Z,17.90
2019-04-26T19:51:27.139Z,16.93
2019-04-26T19:54:17.342Z,16.93
2019-04-26T19:57:01.134Z,17.95
2019-04-26T19:59:34.705Z,17.07
2019-04-26T20:02:09.592Z,16.93
2019-04-26T20:04:41.958Z,16.62
2019-04-26T20:07:14.023Z,17.48
2019-04-26T20:09:47.001Z,16.32
2019-04-26T20:12:23.361Z,16.75
2019-04-26T20:14:58.258Z,16.03
2019-04-26T20:17:28.853Z,15.98
2019-04-26T20:20:02.051Z,15.58
2019-04-26T20:22:35.417Z,16.10
2019-04-26T20:25:09.285Z,15.45
2019-04-26T20:27:42.460Z,15.28
2019-04-26T20:30:18.157Z,15.10
2019-04-26T20:32:52.378Z,15.20
2019-04-26T20:35:29.232Z,14.90
2019-04-26T20:38:04.712Z,14.58
2019-04-26T20:40:37.486Z,14.15
2019-04-26T20:43:22.967Z,14.40
2019-04-26T20:46:07.705Z,14.10
2019-04-26T20:48:18.927Z,13.90
2019-04-26T20:50:52.041Z,13.55
2019-04-26T20:53:26.386Z,13.25
2019-04-26T20:55:59.372Z,13.65
2019-04-26T20:58:37.498Z,13.93
2019-04-26T21:01:14.054Z,13.55
2019-04-26T21:03:59.233Z,13.10
2019-04-26T21:06:37.018Z,12.78
2019-04-26T21:09:12.005Z,12.82
2019-04-26T21:11:44.478Z,12.97
2019-04-26T21:14:16.639Z,13.40
2019-04-26T21:16:50.597Z,13.98
2019-04-26T21:19:28.355Z,12.00
2019-04-26T21:22:04.347Z,12.97
2019-04-26T21:24:38.324Z,12.43
2019-04-26T21:27:25.984Z,13.43
2019-04-26T21:30:13.497Z,13.70
2019-04-26T21:32:59.169Z,14.20
2019-04-26T21:35:34.921Z,13.78
2019-04-26T21:38:08.193Z,14.00
2019-04-26T21:40:43.844Z,13.95
2019-04-26T21:43:16.694Z,13.80
2019-04-26T21:45:48.449Z,13.83
2019-04-26T21:48:23.519Z,12.85
2019-04-26T21:50:55.103Z,13.72
2019-04-26T21:53:29.863Z,13.03
2019-04-26T21:56:03.038Z,13.53
2019-04-26T21:58:36.493Z,12.68
2019-04-26T22:01:11.015Z,12.07
2019-04-26T22:03:47.426Z,12.40
2019-04-26T22:06:19.800Z,12.33
2019-04-26T22:08:59.332Z,12.05
2019-04-26T22:11:32.610Z,12.37
2019-04-26T22:14:06.482Z,11.10
2019-04-26T22:16:57.536Z,12.15
2019-04-26T22:19:32.512Z,11.63
2019-04-26T22:22:18.717Z,10.95
2019-04-26T22:24:55.498Z,11.53
2019-04-26T22:27:27.452Z,11.22
2019-04-26T22:29:59.695Z,11.65
2019-04-26T22:32:33.288Z,11.53
2019-04-26T22:35:05.471Z,11.55
2019-04-26T22:37:37.438Z,11.43
2019-04-26T22:40:10.492Z,11.97
2019-04-26T22:42:45.637Z,11.97
2019-04-26T22:45:23.393Z,12.07
2019-04-26T22:48:06.913Z,12.45
2019-04-26T22:50:38.580Z,11.95
2019-04-26T22:53:11.916Z,11.65
2019-04-26T22:55:44.496Z,13.03
2019-04-26T22:58:20.619Z,14.63
2019-04-26T23:00:50.132Z,13.93
2019-04-26T23:03:23.980Z,13.22
2019-04-26T23:05:55.579Z,12.98
2019-04-26T23:08:30.832Z,14.43
2019-04-26T23:11:02.484Z,15.63
2019-04-26T23:13:41.337Z,14.80
2019-04-26T23:16:25.529Z,15.32
2019-04-26T23:19:15.347Z,14.83
2019-04-26T23:21:55.859Z,16.85
2019-04-26T23:24:26.116Z,16.42
2019-04-26T23:26:57.799Z,16.52
2019-04-26T23:29:29.564Z,17.27
2019-04-26T23:32:01.266Z,16.25
2019-04-26T23:34:33.766Z,17.37
2019-04-26T23:37:06.137Z,15.78
2019-04-26T23:39:42.944Z,15.72
2019-04-26T23:42:16.487Z,14.98
2019-04-26T23:44:46.406Z,15.45
2019-04-26T23:47:22.994Z,14.33
2019-04-26T23:49:53.874Z,13.15
2019-04-26T23:52:25.634Z,13.05
2019-04-26T23:54:57.326Z,13.05
2019-04-26T23:57:31.369Z,12.25
